Startpagina
METAR-TAF:

METAR-TAF

Vliegvelden :

Florianópolis, Santa Catarina, Brazilië

Aeroporto Internacional Hercílio Luz

breedte: 27-40S, lengte: 048-33W, hoogte: 5 m

Actueel weer

Dit bericht is 18 minuten geleden gemaakt, om 21:00 UTC
Wind 6 kt uit het zuiden
Temperatuur 23°C
Vochtigheid 94%
Druk 1013 hPa
Zicht: 2500 m
Gebroken wolken op 1000 ft
Gebroken wolken op 2300 ft
lichte regen

METAR: SBFL 162100Z 19006KT 2500 -RA BKN010 BKN023 23/22 Q1013

Tijdstip: 19:18 (21:18 UTC)

Verwachting

Dit bericht is 6 uur en het 48 minuten geleden gemaakt, om 14:30 UTC
Verwachting geldig van 16 om 18 UTC tot 17 om 18 UTC
Wind 10 kt uit het zuidzuidoosten
Zicht 10 km of meer
Gebroken wolken op 3000 ft
Wijzigt naar
van 17 om 02 UTC tot 17 om 04 UTC
Wind 5 kt uit het westen

TAF: SBFL 161430Z 1618/1718 16010KT 9999 BKN030 TX29/1717Z TN22/1706Z BECMG 1702/1704 27005KT RMK PEB

Waarnemingen en weersverwachtingen van meer dan 4000 vliegvelden (METAR en TAF).

De beschikbare stations zijn de gele en rode punten op de kaart.

Ga met uw muis naar het station om de naam te zien.

Klik dan om waarnemingen en weersverwachtingen te zien.

kaart wijzigen: klik op de groene knoppen met een zwart kruis om in te zoomen, op de groene knop met een streepje om uit te zoomen of op de groene pijlen voor aangrenzende kaarten.


METAR-TAF: